Date,TemperatureHighF,TemperatureAvgF,TemperatureLowF,DewpointHighF,DewpointAvgF,DewpointLowF,HumidityHigh,HumidityAvg,HumidityLow,PressureMaxIn,PressureMinIn,WindSpeedMaxMPH,WindSpeedAvgMPH,GustSpeedMaxMPH,PrecipitationSumIn
2014-1-1,24.3,20.7,16.4,21.0,17.9,14.0,91,89,84,30.30,30.16,0,0,0,0.00
2014-1-2,20.8,13.6,1.9,19.0,9.3,-4.0,91,83,75,30.46,30.13,0,0,0,0.00
2014-1-3,20.9,9.1,-7.3,16.0,4.3,-11.0,86,81,71,30.49,29.98,0,0,0,0.00
2014-1-4,33.8,28.5,20.5,30.0,24.2,16.0,95,84,75,30.00,29.89,0,0,0,0.00
2014-1-5,30.6,14.9,-2.0,29.0,12.6,-6.0,95,90,82,30.15,29.92,0,0,0,0.00
2014-1-6,-2.5,-9.6,-13.9,-5.0,-15.0,-19.0,92,76,73,30.39,30.15,21,1,0,0.00
2014-1-7,9.4,-0.9,-10.0,4.0,-6.2,-15.0,85,78,74,30.43,30.32,0,0,0,0.00
2014-1-8,13.3,4.6,-4.3,7.0,-0.2,-8.0,88,80,68,30.56,30.33,0,0,0,0.00
2014-1-9,30.7,14.9,-2.3,30.0,12.1,-7.0,95,88,79,30.57,30.19,0,0,0,0.00
2014-1-10,38.9,34.7,30.8,38.0,34.0,30.0,97,97,95,30.18,29.52,0,0,0,1.06
2014-1-11,38.4,35.0,31.5,38.0,32.6,28.0,97,91,81,29.83,29.45,0,0,0,0.07
2014-1-12,41.6,35.9,30.0,36.0,32.2,28.0,94,87,80,29.91,29.62,0,0,0,0.00
2014-1-13,46.4,37.9,29.0,39.0,33.7,25.0,92,85,72,29.80,29.56,0,0,0,0.00
2014-1-14,36.0,29.6,22.3,34.0,25.7,18.0,93,85,72,29.95,29.66,0,0,0,0.01
2014-1-15,22.4,19.1,15.9,19.0,13.8,11.0,88,80,70,30.14,29.91,0,0,0,0.00
2014-1-16,37.4,29.2,21.7,34.0,23.4,15.0,90,79,63,29.91,29.54,0,0,0,0.00
2014-1-17,21.7,15.2,11.3,16.0,10.1,7.0,84,80,74,30.04,29.74,0,0,0,0.00
2014-1-18,21.6,15.2,8.2,20.0,12.5,5.0,92,89,81,30.01,29.73,0,0,0,0.00
2014-1-19,39.8,25.0,7.4,33.0,21.1,5.0,91,85,74,29.95,29.59,0,0,0,0.01
2014-1-20,39.3,31.6,17.6,33.0,27.4,16.0,91,84,77,30.03,29.64,0,0,0,0.00
2014-1-21,16.8,5.1,-5.2,15.0,-0.7,-10.0,91,77,69,30.35,30.04,0,0,0,0.00
2014-1-22,18.0,8.8,-4.1,14.0,4.2,-9.0,86,81,70,30.28,29.97,0,0,0,0.00
2014-1-23,5.2,0.2,-2.8,-2.0,-6.9,-10.0,75,72,69,30.70,30.29,0,0,0,0.00
2014-1-24,28.7,12.5,-8.5,26.0,6.4,-14.0,93,77,67,30.65,29.56,0,0,0,0.00
2014-1-25,35.1,20.2,8.7,32.0,10.8,-1.0,93,68,50,29.93,29.48,0,0,0,0.00
2014-1-26,35.7,22.0,5.2,29.0,17.5,1.0,92,83,69,29.94,29.45,0,0,0,0.01
2014-1-27,5.0,-1.4,-6.3,2.0,-7.9,-14.0,86,74,64,30.52,29.95,0,0,0,0.00
2014-1-28,8.0,-1.4,-9.3,-2.0,-8.5,-15.0,80,72,62,30.54,30.32,6,0,0,0.00
2014-1-29,26.1,13.9,0.7,14.0,4.9,-6.0,79,68,50,30.32,30.06,0,0,0,0.00
2014-1-30,33.7,26.3,19.5,30.0,19.6,11.0,92,76,59,30.06,29.70,0,0,0,0.00
2014-1-31,20.9,19.5,17.9,19.0,15.3,12.0,92,83,77,30.21,29.98,0,0,0,0.00